createdAt,value
2022-11-12T00:01:21.331Z,3.90
2022-11-12T00:06:43.157Z,3.90
2022-11-12T00:12:06.665Z,3.80
2022-11-12T00:17:28.386Z,3.80
2022-11-12T00:22:50.241Z,3.70
2022-11-12T00:28:13.431Z,3.70
2022-11-12T00:33:38.717Z,3.60
2022-11-12T00:39:00.930Z,3.60
2022-11-12T00:44:24.464Z,3.60
2022-11-12T00:49:46.291Z,3.50
2022-11-12T00:55:08.493Z,3.50
2022-11-12T01:00:31.877Z,3.40
2022-11-12T01:05:53.704Z,3.30
2022-11-12T01:11:17.432Z,3.40
2022-11-12T01:16:40.864Z,3.40
2022-11-12T01:22:02.478Z,3.40
2022-11-12T01:27:24.607Z,3.40
2022-11-12T01:32:48.637Z,3.10
2022-11-12T01:38:10.433Z,3.20
2022-11-12T01:43:32.491Z,3.20
2022-11-12T01:48:59.477Z,3.10
2022-11-12T01:54:22.737Z,3.00
2022-11-12T01:59:47.337Z,3.10
2022-11-12T02:05:12.979Z,3.20
2022-11-12T02:10:35.574Z,3.00
2022-11-12T02:15:58.516Z,3.10
2022-11-12T02:21:22.914Z,3.10
2022-11-12T02:26:48.333Z,3.00
2022-11-12T02:32:10.349Z,2.90
2022-11-12T02:37:33.627Z,2.90
2022-11-12T02:42:55.684Z,2.90
2022-11-12T02:48:19.346Z,2.80
2022-11-12T02:53:42.662Z,2.80
2022-11-12T02:59:04.290Z,2.70
2022-11-12T03:04:26.061Z,2.70
2022-11-12T03:09:49.347Z,2.70
2022-11-12T03:15:11.195Z,2.70
2022-11-12T03:20:34.782Z,2.70
2022-11-12T03:25:57.671Z,2.60
2022-11-12T03:31:20.024Z,2.60
2022-11-12T03:36:41.965Z,2.50
2022-11-12T03:42:05.350Z,2.50
2022-11-12T03:47:27.257Z,2.40
2022-11-12T03:52:52.969Z,2.40
2022-11-12T03:58:16.118Z,2.40
2022-11-12T04:03:37.947Z,2.50
2022-11-12T04:08:59.692Z,2.40
2022-11-12T04:14:22.930Z,2.40
2022-11-12T04:20:03.128Z,2.40
2022-11-12T04:25:43.609Z,2.30
2022-11-12T04:31:06.881Z,2.20
2022-11-12T04:36:28.594Z,2.20
2022-11-12T04:42:09.230Z,2.20
2022-11-12T04:47:34.511Z,2.10
2022-11-12T04:52:56.272Z,2.10
2022-11-12T04:58:18.563Z,2.10
2022-11-12T05:03:41.549Z,2.10
2022-11-12T05:09:03.503Z,2.10
2022-11-12T05:14:25.553Z,2.00
2022-11-12T05:19:48.805Z,2.00
2022-11-12T05:25:10.492Z,2.00
2022-11-12T05:30:32.730Z,1.90
2022-11-12T05:35:57.662Z,1.90
2022-11-12T05:41:20.308Z,1.90
2022-11-12T05:46:42.818Z,2.00
2022-11-12T05:52:06.119Z,1.90
2022-11-12T05:57:27.995Z,1.90
2022-11-12T06:02:50.062Z,1.90
2022-11-12T06:08:13.537Z,1.80
2022-11-12T06:13:35.081Z,1.70
2022-11-12T06:18:56.864Z,1.80
2022-11-12T06:24:20.055Z,1.80
2022-11-12T06:29:41.752Z,1.80
2022-11-12T06:35:03.342Z,1.90
2022-11-12T06:40:26.737Z,1.80
2022-11-12T06:45:48.636Z,2.00
2022-11-12T06:51:15.468Z,2.00
2022-11-12T06:56:38.762Z,2.20
2022-11-12T07:02:00.685Z,2.30
2022-11-12T07:07:22.530Z,2.60
2022-11-12T07:12:50.445Z,2.80
2022-11-12T07:18:14.850Z,3.00
2022-11-12T07:23:37.087Z,3.40
2022-11-12T07:29:00.088Z,3.70
2022-11-12T07:34:21.644Z,4.00
2022-11-12T07:39:43.138Z,4.60
2022-11-12T07:45:07.109Z,5.30
2022-11-12T07:50:28.668Z,5.80
2022-11-12T07:55:54.850Z,6.10
2022-11-12T08:01:30.303Z,6.30
2022-11-12T08:06:52.877Z,6.70
2022-11-12T08:12:15.221Z,6.70
2022-11-12T08:17:40.176Z,6.80
2022-11-12T08:23:01.884Z,7.00
2022-11-12T08:28:23.573Z,7.20
2022-11-12T08:33:46.928Z,7.90
2022-11-12T08:39:09.409Z,8.00
2022-11-12T08:44:32.599Z,8.30
2022-11-12T08:49:56.883Z,8.60
2022-11-12T08:55:18.679Z,9.60
2022-11-12T09:00:43.168Z,10.20
2022-11-12T09:06:06.796Z,10.70
2022-11-12T09:11:28.591Z,10.80
2022-11-12T09:16:50.908Z,11.60
2022-11-12T09:22:14.865Z,13.40
2022-11-12T09:27:36.403Z,15.20
2022-11-12T09:32:59.168Z,15.40
2022-11-12T09:38:23.039Z,14.40
2022-11-12T09:43:49.902Z,13.70
2022-11-12T09:49:16.258Z,12.70
2022-11-12T09:54:40.286Z,12.30
2022-11-12T10:00:03.524Z,12.00
2022-11-12T10:05:31.429Z,11.90
2022-11-12T10:11:02.156Z,11.50
2022-11-12T10:16:43.799Z,11.70
2022-11-12T10:22:18.241Z,11.50
2022-11-12T10:27:42.118Z,11.50
2022-11-12T10:33:04.191Z,11.90
2022-11-12T10:38:28.702Z,12.00
2022-11-12T10:43:54.817Z,12.10
2022-11-12T10:49:24.660Z,12.50
2022-11-12T10:54:50.988Z,13.00
2022-11-12T11:00:19.649Z,13.10
2022-11-12T11:05:51.596Z,13.40
2022-11-12T11:11:26.149Z,13.40
2022-11-12T11:16:54.103Z,14.00
2022-11-12T11:22:30.194Z,14.00
2022-11-12T11:28:05.807Z,14.10
2022-11-12T11:33:43.910Z,13.80
2022-11-12T11:39:17.846Z,13.80
2022-11-12T11:44:45.107Z,13.70
2022-11-12T11:50:25.669Z,13.60
2022-11-12T11:55:54.209Z,14.00
2022-11-12T12:01:23.056Z,14.10
2022-11-12T12:06:54.533Z,14.30
2022-11-12T12:12:31.121Z,15.10
2022-11-12T12:18:04.331Z,16.40
2022-11-12T12:23:33.549Z,17.30
2022-11-12T12:29:00.194Z,17.90
2022-11-12T12:34:27.357Z,18.60
2022-11-12T12:39:58.892Z,18.40
2022-11-12T12:45:36.078Z,18.30
2022-11-12T12:50:58.756Z,18.30
2022-11-12T12:56:47.234Z,17.60
2022-11-12T13:02:20.506Z,16.60
2022-11-12T13:07:45.134Z,16.30
2022-11-12T13:13:31.725Z,16.40
2022-11-12T13:19:02.143Z,16.40
2022-11-12T13:24:57.330Z,17.00
2022-11-12T13:30:51.813Z,16.00
2022-11-12T13:36:25.801Z,14.80
2022-11-12T13:42:15.116Z,13.80
2022-11-12T13:47:38.117Z,13.30
2022-11-12T13:53:01.902Z,13.10
2022-11-12T13:58:29.676Z,12.80
2022-11-12T14:03:53.310Z,12.40
2022-11-12T14:09:46.205Z,12.10
2022-11-12T14:15:23.038Z,11.80
2022-11-12T14:20:45.131Z,11.50
2022-11-12T14:26:13.228Z,11.20
2022-11-12T14:31:34.925Z,10.90
2022-11-12T14:36:57.656Z,10.60
2022-11-12T14:42:20.870Z,10.40
2022-11-12T14:47:43.042Z,10.10
2022-11-12T14:53:09.316Z,9.70
2022-11-12T14:58:33.801Z,9.40
2022-11-12T15:04:05.576Z,9.20
2022-11-12T15:09:35.716Z,9.00
2022-11-12T15:15:09.854Z,8.60
2022-11-12T15:20:31.912Z,8.40
2022-11-12T15:26:00.447Z,8.10
2022-11-12T15:31:23.568Z,8.00
2022-11-12T15:36:45.460Z,7.80
2022-11-12T15:42:16.214Z,7.50
2022-11-12T15:47:39.421Z,7.30
2022-11-12T15:53:01.270Z,7.10
2022-11-12T15:58:30.581Z,6.90
2022-11-12T16:03:53.595Z,6.80
2022-11-12T16:09:15.606Z,6.80
2022-11-12T16:14:37.452Z,6.60
2022-11-12T16:20:01.302Z,6.60
2022-11-12T16:25:25.032Z,6.40
2022-11-12T16:30:50.658Z,6.30
2022-11-12T16:36:15.869Z,6.10
2022-11-12T16:41:37.967Z,6.10
2022-11-12T16:47:02.685Z,6.00
